Hebbronville, Texas
Current Conditions -  °F | °C
As of 12:35 AM on Thursday 27 Nov 2014 (Local Time) from KHBV Reporting Station
Clear Clear  
Wind Chill: 48°   Ceiling: Unl
Heat Index: 50°   Visibility: 10mi
Dew Point: 37°   Wind: 5mph
Humidity: 61%   Direction: 200°SSW
Pressure: 30.31"   Gusts: NA
Location:  27.31°N, 98.68°W
Report Text: KHBV 270635Z AUTO 20004KT 10SM CLR 10/03 A3031 RMK AO2 T00990028
Loading
Personal Weather Stations






























Interactive Weather Map New forecast layout! Learn more

10-Day Weather Forecast

Advertisements
Track Severe Weather on mobile